Brundall, United Kingdom
Current Conditions -  °F | °C
As of 4:20 PM on Monday 22 Dec 2014 (Local Time) from EGSH Reporting Station
Scattered Clouds Scattered Clouds  
Wind Chill: 13°   Ceiling: Unl
Heat Index: 13°   Visibility: 6mi
Dew Point: 10°   Wind: 21mph
Humidity: 82%   Direction: 240°WSW
Pressure: 29.91"   Gusts: NA
Location:  52.62°N, 1.44°E
Report Text: EGSH 221620Z 24018KT 210V270 9999 FEW018 SCT023 13/10 Q1013 NOSIG
Loading
Personal Weather Stations






























Interactive Weather Map New forecast layout! Learn more

10-Day Weather Forecast

Advertisements
Track Severe Weather on mobile